sensor_id;sensor_type;location;lat;lon;timestamp;P1;durP1;ratioP1;P2;durP2;ratioP2
3971;SDS011;2000;47.572;14.202;2023-05-07T00:01:21;5.60;;;2.13;;
3971;SDS011;2000;47.572;14.202;2023-05-07T00:03:48;1.83;;;1.40;;
3971;SDS011;2000;47.572;14.202;2023-05-07T00:06:15;3.80;;;1.80;;
3971;SDS011;2000;47.572;14.202;2023-05-07T00:08:42;2.40;;;1.27;;
3971;SDS011;2000;47.572;14.202;2023-05-07T00:11:09;5.53;;;2.00;;
3971;SDS011;2000;47.572;14.202;2023-05-07T00:13:36;4.13;;;1.63;;
3971;SDS011;2000;47.572;14.202;2023-05-07T00:16:02;2.33;;;1.60;;
3971;SDS011;2000;47.572;14.202;2023-05-07T00:18:29;9.03;;;1.63;;
3971;SDS011;2000;47.572;14.202;2023-05-07T00:20:56;6.10;;;1.50;;
3971;SDS011;2000;47.572;14.202;2023-05-07T00:23:23;1.30;;;1.23;;
3971;SDS011;2000;47.572;14.202;2023-05-07T00:25:50;3.00;;;1.47;;
3971;SDS011;2000;47.572;14.202;2023-05-07T00:28:17;3.10;;;1.40;;
3971;SDS011;2000;47.572;14.202;2023-05-07T00:30:43;5.80;;;1.87;;
3971;SDS011;2000;47.572;14.202;2023-05-07T00:33:10;10.77;;;1.77;;
3971;SDS011;2000;47.572;14.202;2023-05-07T00:35:37;7.27;;;1.47;;
3971;SDS011;2000;47.572;14.202;2023-05-07T00:38:03;1.40;;;1.30;;
3971;SDS011;2000;47.572;14.202;2023-05-07T00:40:30;2.20;;;1.27;;
3971;SDS011;2000;47.572;14.202;2023-05-07T00:42:57;4.90;;;1.40;;
3971;SDS011;2000;47.572;14.202;2023-05-07T00:45:26;2.93;;;1.53;;
3971;SDS011;2000;47.572;14.202;2023-05-07T00:47:57;3.17;;;1.50;;
3971;SDS011;2000;47.572;14.202;2023-05-07T00:50:28;10.57;;;1.77;;
3971;SDS011;2000;47.572;14.202;2023-05-07T00:52:56;1.50;;;1.40;;
3971;SDS011;2000;47.572;14.202;2023-05-07T00:55:23;0.90;;;0.80;;
3971;SDS011;2000;47.572;14.202;2023-05-07T00:57:50;1.80;;;1.27;;
3971;SDS011;2000;47.572;14.202;2023-05-07T01:00:17;3.43;;;1.50;;
3971;SDS011;2000;47.572;14.202;2023-05-07T01:02:44;3.33;;;1.87;;
3971;SDS011;2000;47.572;14.202;2023-05-07T01:05:14;5.90;;;1.60;;
3971;SDS011;2000;47.572;14.202;2023-05-07T01:07:43;8.00;;;1.60;;
3971;SDS011;2000;47.572;14.202;2023-05-07T01:10:10;1.90;;;1.70;;
3971;SDS011;2000;47.572;14.202;2023-05-07T01:12:37;1.57;;;1.47;;
3971;SDS011;2000;47.572;14.202;2023-05-07T01:15:06;2.57;;;0.90;;
3971;SDS011;2000;47.572;14.202;2023-05-07T01:17:35;1.43;;;1.07;;
3971;SDS011;2000;47.572;14.202;2023-05-07T01:20:03;2.67;;;1.53;;
3971;SDS011;2000;47.572;14.202;2023-05-07T01:22:34;9.80;;;1.70;;
3971;SDS011;2000;47.572;14.202;2023-05-07T01:25:05;3.10;;;1.40;;
3971;SDS011;2000;47.572;14.202;2023-05-07T01:27:33;2.33;;;1.50;;
3971;SDS011;2000;47.572;14.202;2023-05-07T01:30:01;4.33;;;1.53;;
3971;SDS011;2000;47.572;14.202;2023-05-07T01:32:33;1.50;;;1.40;;
3971;SDS011;2000;47.572;14.202;2023-05-07T01:35:05;2.57;;;1.40;;
3971;SDS011;2000;47.572;14.202;2023-05-07T01:37:32;5.37;;;1.27;;
3971;SDS011;2000;47.572;14.202;2023-05-07T01:39:59;1.70;;;1.60;;
3971;SDS011;2000;47.572;14.202;2023-05-07T01:42:27;1.80;;;1.20;;
3971;SDS011;2000;47.572;14.202;2023-05-07T01:44:55;4.27;;;1.43;;
3971;SDS011;2000;47.572;14.202;2023-05-07T01:47:22;3.47;;;1.70;;
3971;SDS011;2000;47.572;14.202;2023-05-07T01:49:49;2.90;;;1.43;;
3971;SDS011;2000;47.572;14.202;2023-05-07T01:52:16;1.17;;;1.03;;
3971;SDS011;2000;47.572;14.202;2023-05-07T01:54:43;1.50;;;1.40;;
3971;SDS011;2000;47.572;14.202;2023-05-07T01:57:10;2.43;;;1.03;;
3971;SDS011;2000;47.572;14.202;2023-05-07T01:59:37;2.00;;;1.50;;
3971;SDS011;2000;47.572;14.202;2023-05-07T02:02:03;3.17;;;1.40;;
3971;SDS011;2000;47.572;14.202;2023-05-07T02:04:30;2.30;;;1.90;;
3971;SDS011;2000;47.572;14.202;2023-05-07T02:06:57;2.67;;;1.47;;
3971;SDS011;2000;47.572;14.202;2023-05-07T02:09:24;5.30;;;1.73;;
3971;SDS011;2000;47.572;14.202;2023-05-07T02:11:51;8.20;;;1.83;;
3971;SDS011;2000;47.572;14.202;2023-05-07T02:14:17;1.67;;;1.50;;
3971;SDS011;2000;47.572;14.202;2023-05-07T02:16:46;1.67;;;1.20;;
3971;SDS011;2000;47.572;14.202;2023-05-07T02:19:13;3.47;;;1.37;;
3971;SDS011;2000;47.572;14.202;2023-05-07T02:21:40;2.70;;;1.30;;
3971;SDS011;2000;47.572;14.202;2023-05-07T02:24:06;1.50;;;1.20;;
3971;SDS011;2000;47.572;14.202;2023-05-07T02:26:33;5.07;;;1.50;;
3971;SDS011;2000;47.572;14.202;2023-05-07T02:29:00;7.43;;;1.63;;
3971;SDS011;2000;47.572;14.202;2023-05-07T02:31:27;1.40;;;1.30;;
3971;SDS011;2000;47.572;14.202;2023-05-07T02:33:54;4.33;;;2.10;;
3971;SDS011;2000;47.572;14.202;2023-05-07T02:36:20;7.30;;;2.23;;
3971;SDS011;2000;47.572;14.202;2023-05-07T02:38:47;3.93;;;1.93;;
3971;SDS011;2000;47.572;14.202;2023-05-07T02:41:14;3.20;;;1.63;;
3971;SDS011;2000;47.572;14.202;2023-05-07T02:43:41;4.80;;;1.40;;
3971;SDS011;2000;47.572;14.202;2023-05-07T02:46:08;2.07;;;1.63;;
3971;SDS011;2000;47.572;14.202;2023-05-07T02:48:35;3.10;;;1.07;;
3971;SDS011;2000;47.572;14.202;2023-05-07T02:51:03;2.30;;;1.53;;
3971;SDS011;2000;47.572;14.202;2023-05-07T02:53:30;2.17;;;1.47;;
3971;SDS011;2000;47.572;14.202;2023-05-07T02:55:57;1.97;;;1.77;;
3971;SDS011;2000;47.572;14.202;2023-05-07T02:58:26;1.13;;;0.97;;
3971;SDS011;2000;47.572;14.202;2023-05-07T03:00:52;13.40;;;2.53;;
3971;SDS011;2000;47.572;14.202;2023-05-07T03:03:21;2.70;;;1.43;;
3971;SDS011;2000;47.572;14.202;2023-05-07T03:05:47;5.13;;;1.80;;
3971;SDS011;2000;47.572;14.202;2023-05-07T03:08:14;2.17;;;1.50;;
3971;SDS011;2000;47.572;14.202;2023-05-07T03:10:41;1.97;;;1.50;;
3971;SDS011;2000;47.572;14.202;2023-05-07T03:13:08;1.40;;;1.30;;
3971;SDS011;2000;47.572;14.202;2023-05-07T03:15:35;3.70;;;1.10;;
3971;SDS011;2000;47.572;14.202;2023-05-07T03:18:01;2.07;;;1.03;;
3971;SDS011;2000;47.572;14.202;2023-05-07T03:20:28;4.47;;;1.93;;
3971;SDS011;2000;47.572;14.202;2023-05-07T03:22:56;5.63;;;1.60;;
3971;SDS011;2000;47.572;14.202;2023-05-07T03:25:23;6.60;;;1.60;;
3971;SDS011;2000;47.572;14.202;2023-05-07T03:27:49;2.70;;;1.70;;
3971;SDS011;2000;47.572;14.202;2023-05-07T03:30:16;3.60;;;1.97;;
3971;SDS011;2000;47.572;14.202;2023-05-07T03:32:43;3.13;;;1.50;;
3971;SDS011;2000;47.572;14.202;2023-05-07T03:35:10;1.80;;;1.10;;
3971;SDS011;2000;47.572;14.202;2023-05-07T03:37:37;1.23;;;0.90;;
3971;SDS011;2000;47.572;14.202;2023-05-07T03:40:04;2.23;;;1.27;;
3971;SDS011;2000;47.572;14.202;2023-05-07T03:42:32;1.50;;;1.40;;
3971;SDS011;2000;47.572;14.202;2023-05-07T03:44:59;4.93;;;2.33;;
3971;SDS011;2000;47.572;14.202;2023-05-07T03:47:25;2.20;;;1.77;;
3971;SDS011;2000;47.572;14.202;2023-05-07T03:49:52;3.33;;;2.60;;
3971;SDS011;2000;47.572;14.202;2023-05-07T03:52:20;3.87;;;2.87;;
3971;SDS011;2000;47.572;14.202;2023-05-07T03:54:51;5.27;;;3.13;;
3971;SDS011;2000;47.572;14.202;2023-05-07T03:57:19;4.20;;;2.77;;
3971;SDS011;2000;47.572;14.202;2023-05-07T03:59:46;7.30;;;2.73;;
3971;SDS011;2000;47.572;14.202;2023-05-07T04:02:12;4.27;;;2.67;;
3971;SDS011;2000;47.572;14.202;2023-05-07T04:04:39;3.87;;;2.03;;
3971;SDS011;2000;47.572;14.202;2023-05-07T04:07:06;1.93;;;1.80;;
3971;SDS011;2000;47.572;14.202;2023-05-07T04:09:33;5.40;;;1.70;;
3971;SDS011;2000;47.572;14.202;2023-05-07T04:12:00;9.00;;;1.87;;
3971;SDS011;2000;47.572;14.202;2023-05-07T04:14:27;2.53;;;1.40;;
3971;SDS011;2000;47.572;14.202;2023-05-07T04:16:54;3.27;;;1.30;;
3971;SDS011;2000;47.572;14.202;2023-05-07T04:19:21;1.97;;;1.17;;
3971;SDS011;2000;47.572;14.202;2023-05-07T04:21:47;4.97;;;1.80;;
3971;SDS011;2000;47.572;14.202;2023-05-07T04:24:14;5.63;;;1.30;;
3971;SDS011;2000;47.572;14.202;2023-05-07T04:26:40;3.53;;;1.53;;
3971;SDS011;2000;47.572;14.202;2023-05-07T04:29:07;9.30;;;2.20;;
3971;SDS011;2000;47.572;14.202;2023-05-07T04:31:34;7.03;;;2.00;;
3971;SDS011;2000;47.572;14.202;2023-05-07T04:34:01;3.03;;;2.03;;
3971;SDS011;2000;47.572;14.202;2023-05-07T04:36:27;1.60;;;1.50;;
3971;SDS011;2000;47.572;14.202;2023-05-07T04:38:55;2.60;;;1.73;;
3971;SDS011;2000;47.572;14.202;2023-05-07T04:41:22;3.87;;;2.00;;
3971;SDS011;2000;47.572;14.202;2023-05-07T04:43:48;3.87;;;1.73;;
3971;SDS011;2000;47.572;14.202;2023-05-07T04:46:15;3.77;;;2.50;;
3971;SDS011;2000;47.572;14.202;2023-05-07T04:48:42;3.17;;;2.70;;
3971;SDS011;2000;47.572;14.202;2023-05-07T04:51:09;4.77;;;2.07;;
3971;SDS011;2000;47.572;14.202;2023-05-07T04:53:36;3.10;;;2.53;;
3971;SDS011;2000;47.572;14.202;2023-05-07T04:56:03;2.73;;;2.50;;
3971;SDS011;2000;47.572;14.202;2023-05-07T04:58:30;2.27;;;2.07;;
3971;SDS011;2000;47.572;14.202;2023-05-07T05:00:58;4.63;;;2.70;;
3971;SDS011;2000;47.572;14.202;2023-05-07T05:03:26;3.30;;;2.23;;
3971;SDS011;2000;47.572;14.202;2023-05-07T05:05:53;2.70;;;2.00;;
3971;SDS011;2000;47.572;14.202;2023-05-07T05:08:20;3.60;;;1.90;;
3971;SDS011;2000;47.572;14.202;2023-05-07T05:10:47;2.33;;;2.13;;
3971;SDS011;2000;47.572;14.202;2023-05-07T05:13:16;3.40;;;1.70;;
3971;SDS011;2000;47.572;14.202;2023-05-07T05:15:43;6.47;;;2.10;;
3971;SDS011;2000;47.572;14.202;2023-05-07T05:18:10;14.80;;;2.50;;
3971;SDS011;2000;47.572;14.202;2023-05-07T05:20:36;2.33;;;1.63;;
3971;SDS011;2000;47.572;14.202;2023-05-07T05:23:03;6.90;;;3.43;;
3971;SDS011;2000;47.572;14.202;2023-05-07T05:25:30;10.53;;;2.27;;
3971;SDS011;2000;47.572;14.202;2023-05-07T05:27:57;3.23;;;2.30;;
3971;SDS011;2000;47.572;14.202;2023-05-07T05:30:23;4.87;;;2.00;;
3971;SDS011;2000;47.572;14.202;2023-05-07T05:32:50;3.37;;;2.10;;
3971;SDS011;2000;47.572;14.202;2023-05-07T05:35:17;6.80;;;2.43;;
3971;SDS011;2000;47.572;14.202;2023-05-07T05:37:43;6.00;;;3.73;;
3971;SDS011;2000;47.572;14.202;2023-05-07T05:40:10;7.40;;;2.90;;
3971;SDS011;2000;47.572;14.202;2023-05-07T05:42:38;4.23;;;2.73;;
3971;SDS011;2000;47.572;14.202;2023-05-07T05:45:05;2.63;;;2.30;;
3971;SDS011;2000;47.572;14.202;2023-05-07T05:47:32;2.40;;;2.20;;
3971;SDS011;2000;47.572;14.202;2023-05-07T05:49:59;2.00;;;1.50;;
3971;SDS011;2000;47.572;14.202;2023-05-07T05:52:25;3.80;;;2.33;;
3971;SDS011;2000;47.572;14.202;2023-05-07T05:54:53;4.00;;;2.10;;
3971;SDS011;2000;47.572;14.202;2023-05-07T05:57:20;2.30;;;1.90;;
3971;SDS011;2000;47.572;14.202;2023-05-07T05:59:46;2.33;;;2.23;;
3971;SDS011;2000;47.572;14.202;2023-05-07T06:02:13;2.50;;;2.13;;
3971;SDS011;2000;47.572;14.202;2023-05-07T06:04:40;2.40;;;2.20;;
3971;SDS011;2000;47.572;14.202;2023-05-07T06:07:09;5.30;;;2.33;;
3971;SDS011;2000;47.572;14.202;2023-05-07T06:09:35;2.43;;;1.80;;
3971;SDS011;2000;47.572;14.202;2023-05-07T06:12:02;1.90;;;1.80;;
3971;SDS011;2000;47.572;14.202;2023-05-07T06:14:29;2.57;;;1.80;;
3971;SDS011;2000;47.572;14.202;2023-05-07T06:16:56;2.63;;;1.50;;
3971;SDS011;2000;47.572;14.202;2023-05-07T06:19:23;2.23;;;1.60;;
3971;SDS011;2000;47.572;14.202;2023-05-07T06:21:52;2.10;;;2.00;;
3971;SDS011;2000;47.572;14.202;2023-05-07T06:24:19;1.87;;;1.77;;
3971;SDS011;2000;47.572;14.202;2023-05-07T06:26:46;2.03;;;1.83;;
3971;SDS011;2000;47.572;14.202;2023-05-07T06:29:12;2.37;;;2.17;;
3971;SDS011;2000;47.572;14.202;2023-05-07T06:31:39;2.03;;;1.80;;
3971;SDS011;2000;47.572;14.202;2023-05-07T06:34:07;8.10;;;3.83;;
3971;SDS011;2000;47.572;14.202;2023-05-07T06:36:33;3.40;;;2.40;;
3971;SDS011;2000;47.572;14.202;2023-05-07T06:39:01;10.60;;;3.20;;
3971;SDS011;2000;47.572;14.202;2023-05-07T06:41:28;6.27;;;4.23;;
3971;SDS011;2000;47.572;14.202;2023-05-07T06:43:54;6.23;;;4.07;;
3971;SDS011;2000;47.572;14.202;2023-05-07T06:46:21;22.50;;;6.27;;
3971;SDS011;2000;47.572;14.202;2023-05-07T06:48:48;10.97;;;3.50;;
3971;SDS011;2000;47.572;14.202;2023-05-07T06:51:15;9.07;;;4.00;;
3971;SDS011;2000;47.572;14.202;2023-05-07T06:53:41;13.50;;;4.67;;
3971;SDS011;2000;47.572;14.202;2023-05-07T06:56:08;9.30;;;3.47;;
3971;SDS011;2000;47.572;14.202;2023-05-07T06:58:36;8.60;;;3.63;;
3971;SDS011;2000;47.572;14.202;2023-05-07T07:01:03;8.73;;;3.70;;
3971;SDS011;2000;47.572;14.202;2023-05-07T07:03:30;5.70;;;3.80;;
3971;SDS011;2000;47.572;14.202;2023-05-07T07:05:57;4.93;;;3.77;;
3971;SDS011;2000;47.572;14.202;2023-05-07T07:08:23;3.50;;;2.17;;
3971;SDS011;2000;47.572;14.202;2023-05-07T07:10:50;3.80;;;2.13;;
3971;SDS011;2000;47.572;14.202;2023-05-07T07:13:17;6.40;;;2.53;;
3971;SDS011;2000;47.572;14.202;2023-05-07T07:15:44;2.77;;;2.53;;
3971;SDS011;2000;47.572;14.202;2023-05-07T07:18:11;8.47;;;2.03;;
3971;SDS011;2000;47.572;14.202;2023-05-07T07:20:38;2.20;;;1.80;;
3971;SDS011;2000;47.572;14.202;2023-05-07T07:23:05;3.70;;;2.03;;
3971;SDS011;2000;47.572;14.202;2023-05-07T07:25:32;2.30;;;2.10;;
3971;SDS011;2000;47.572;14.202;2023-05-07T07:27:58;2.87;;;1.90;;
3971;SDS011;2000;47.572;14.202;2023-05-07T07:30:25;10.00;;;2.73;;
3971;SDS011;2000;47.572;14.202;2023-05-07T07:32:53;6.27;;;1.93;;
3971;SDS011;2000;47.572;14.202;2023-05-07T07:35:20;4.93;;;2.60;;
3971;SDS011;2000;47.572;14.202;2023-05-07T07:37:48;2.83;;;2.40;;
3971;SDS011;2000;47.572;14.202;2023-05-07T07:40:16;3.13;;;2.00;;
3971;SDS011;2000;47.572;14.202;2023-05-07T07:42:43;7.90;;;2.87;;
3971;SDS011;2000;47.572;14.202;2023-05-07T07:45:10;2.33;;;2.00;;
3971;SDS011;2000;47.572;14.202;2023-05-07T07:47:37;5.63;;;2.37;;
3971;SDS011;2000;47.572;14.202;2023-05-07T07:50:04;4.10;;;2.47;;
3971;SDS011;2000;47.572;14.202;2023-05-07T07:52:32;1.93;;;1.83;;
3971;SDS011;2000;47.572;14.202;2023-05-07T07:54:59;4.67;;;2.77;;
3971;SDS011;2000;47.572;14.202;2023-05-07T07:57:25;3.00;;;2.30;;
3971;SDS011;2000;47.572;14.202;2023-05-07T07:59:52;3.13;;;2.17;;
3971;SDS011;2000;47.572;14.202;2023-05-07T08:02:19;2.37;;;1.63;;
3971;SDS011;2000;47.572;14.202;2023-05-07T08:04:46;1.90;;;1.67;;
3971;SDS011;2000;47.572;14.202;2023-05-07T08:07:12;2.50;;;2.30;;
3971;SDS011;2000;47.572;14.202;2023-05-07T08:09:40;3.33;;;1.60;;
3971;SDS011;2000;47.572;14.202;2023-05-07T08:12:07;3.03;;;1.73;;
3971;SDS011;2000;47.572;14.202;2023-05-07T08:14:34;2.80;;;1.90;;
3971;SDS011;2000;47.572;14.202;2023-05-07T08:17:01;1.20;;;1.10;;
3971;SDS011;2000;47.572;14.202;2023-05-07T08:19:28;2.40;;;1.50;;
3971;SDS011;2000;47.572;14.202;2023-05-07T08:21:56;2.27;;;2.07;;
3971;SDS011;2000;47.572;14.202;2023-05-07T08:24:23;1.70;;;1.37;;
3971;SDS011;2000;47.572;14.202;2023-05-07T08:26:49;3.90;;;1.40;;
3971;SDS011;2000;47.572;14.202;2023-05-07T08:29:16;6.23;;;1.70;;
3971;SDS011;2000;47.572;14.202;2023-05-07T08:31:43;5.70;;;1.50;;
3971;SDS011;2000;47.572;14.202;2023-05-07T08:34:10;4.10;;;1.30;;
3971;SDS011;2000;47.572;14.202;2023-05-07T08:36:37;3.93;;;1.40;;
3971;SDS011;2000;47.572;14.202;2023-05-07T08:39:04;1.70;;;1.53;;
3971;SDS011;2000;47.572;14.202;2023-05-07T08:41:31;5.13;;;1.40;;
3971;SDS011;2000;47.572;14.202;2023-05-07T08:43:58;3.33;;;1.30;;
3971;SDS011;2000;47.572;14.202;2023-05-07T08:46:30;1.53;;;1.40;;
3971;SDS011;2000;47.572;14.202;2023-05-07T08:48:58;4.33;;;1.17;;
3971;SDS011;2000;47.572;14.202;2023-05-07T08:51:24;11.53;;;2.40;;
3971;SDS011;2000;47.572;14.202;2023-05-07T08:53:51;2.93;;;1.40;;
3971;SDS011;2000;47.572;14.202;2023-05-07T08:56:18;3.43;;;1.17;;
3971;SDS011;2000;47.572;14.202;2023-05-07T08:58:48;2.57;;;1.10;;
3971;SDS011;2000;47.572;14.202;2023-05-07T09:01:15;3.07;;;1.17;;
3971;SDS011;2000;47.572;14.202;2023-05-07T09:03:45;5.00;;;1.30;;
3971;SDS011;2000;47.572;14.202;2023-05-07T09:06:13;1.47;;;1.07;;
3971;SDS011;2000;47.572;14.202;2023-05-07T09:08:40;2.63;;;1.50;;
3971;SDS011;2000;47.572;14.202;2023-05-07T09:11:07;4.13;;;2.13;;
3971;SDS011;2000;47.572;14.202;2023-05-07T09:13:34;3.70;;;1.40;;
3971;SDS011;2000;47.572;14.202;2023-05-07T09:16:10;1.37;;;1.30;;
3971;SDS011;2000;47.572;14.202;2023-05-07T09:18:41;0.93;;;0.93;;
3971;SDS011;2000;47.572;14.202;2023-05-07T09:21:15;6.03;;;2.43;;
3971;SDS011;2000;47.572;14.202;2023-05-07T09:23:42;6.70;;;1.33;;
3971;SDS011;2000;47.572;14.202;2023-05-07T09:26:09;1.90;;;1.77;;
3971;SDS011;2000;47.572;14.202;2023-05-07T09:28:41;2.30;;;1.53;;
3971;SDS011;2000;47.572;14.202;2023-05-07T09:31:09;1.40;;;1.30;;
3971;SDS011;2000;47.572;14.202;2023-05-07T09:33:37;6.03;;;2.00;;
3971;SDS011;2000;47.572;14.202;2023-05-07T09:36:04;3.70;;;1.70;;
3971;SDS011;2000;47.572;14.202;2023-05-07T09:38:32;1.90;;;1.20;;
3971;SDS011;2000;47.572;14.202;2023-05-07T09:43:33;1.83;;;1.07;;
3971;SDS011;2000;47.572;14.202;2023-05-07T09:46:05;1.60;;;1.10;;
3971;SDS011;2000;47.572;14.202;2023-05-07T09:48:35;2.20;;;1.43;;
3971;SDS011;2000;47.572;14.202;2023-05-07T09:51:06;2.33;;;1.67;;
3971;SDS011;2000;47.572;14.202;2023-05-07T09:53:54;3.73;;;1.60;;
3971;SDS011;2000;47.572;14.202;2023-05-07T09:56:23;3.63;;;1.47;;
3971;SDS011;2000;47.572;14.202;2023-05-07T09:58:50;5.03;;;1.33;;
3971;SDS011;2000;47.572;14.202;2023-05-07T10:01:19;6.27;;;1.47;;
3971;SDS011;2000;47.572;14.202;2023-05-07T10:03:48;1.40;;;0.87;;
3971;SDS011;2000;47.572;14.202;2023-05-07T10:06:16;5.37;;;1.70;;
3971;SDS011;2000;47.572;14.202;2023-05-07T10:08:43;15.97;;;1.67;;
3971;SDS011;2000;47.572;14.202;2023-05-07T10:11:10;1.67;;;0.90;;
3971;SDS011;2000;47.572;14.202;2023-05-07T10:13:38;1.47;;;1.37;;
3971;SDS011;2000;47.572;14.202;2023-05-07T10:16:04;1.60;;;1.13;;
3971;SDS011;2000;47.572;14.202;2023-05-07T10:18:32;3.30;;;1.60;;
3971;SDS011;2000;47.572;14.202;2023-05-07T10:21:11;1.83;;;1.10;;
3971;SDS011;2000;47.572;14.202;2023-05-07T10:23:45;5.50;;;1.00;;
3971;SDS011;2000;47.572;14.202;2023-05-07T10:26:14;2.83;;;1.10;;
3971;SDS011;2000;47.572;14.202;2023-05-07T10:28:43;1.80;;;1.00;;
3971;SDS011;2000;47.572;14.202;2023-05-07T10:33:45;7.50;;;1.17;;
3971;SDS011;2000;47.572;14.202;2023-05-07T10:36:13;4.30;;;1.43;;
3971;SDS011;2000;47.572;14.202;2023-05-07T10:38:40;6.60;;;1.23;;
3971;SDS011;2000;47.572;14.202;2023-05-07T10:41:07;0.63;;;0.60;;
3971;SDS011;2000;47.572;14.202;2023-05-07T10:43:38;3.27;;;1.17;;
3971;SDS011;2000;47.572;14.202;2023-05-07T10:46:19;2.53;;;1.20;;
3971;SDS011;2000;47.572;14.202;2023-05-07T10:51:38;2.70;;;1.37;;
3971;SDS011;2000;47.572;14.202;2023-05-07T10:56:41;1.40;;;1.07;;
3971;SDS011;2000;47.572;14.202;2023-05-07T11:01:56;2.20;;;0.70;;
3971;SDS011;2000;47.572;14.202;2023-05-07T11:04:24;3.40;;;1.43;;
3971;SDS011;2000;47.572;14.202;2023-05-07T11:10:16;1.33;;;1.07;;
3971;SDS011;2000;47.572;14.202;2023-05-07T11:15:09;3.13;;;0.83;;
3971;SDS011;2000;47.572;14.202;2023-05-07T11:17:56;2.00;;;0.80;;
3971;SDS011;2000;47.572;14.202;2023-05-07T11:26:04;2.10;;;0.90;;
3971;SDS011;2000;47.572;14.202;2023-05-07T11:28:39;2.40;;;1.10;;
3971;SDS011;2000;47.572;14.202;2023-05-07T11:31:07;1.50;;;0.90;;
3971;SDS011;2000;47.572;14.202;2023-05-07T11:33:34;1.97;;;0.77;;
3971;SDS011;2000;47.572;14.202;2023-05-07T11:36:02;1.50;;;0.87;;
3971;SDS011;2000;47.572;14.202;2023-05-07T11:38:30;7.90;;;0.90;;
3971;SDS011;2000;47.572;14.202;2023-05-07T11:40:58;1.57;;;0.90;;
3971;SDS011;2000;47.572;14.202;2023-05-07T11:43:31;2.87;;;0.87;;
3971;SDS011;2000;47.572;14.202;2023-05-07T11:46:08;1.27;;;0.60;;
3971;SDS011;2000;47.572;14.202;2023-05-07T11:48:36;6.20;;;1.03;;
3971;SDS011;2000;47.572;14.202;2023-05-07T11:51:04;1.53;;;0.93;;
3971;SDS011;2000;47.572;14.202;2023-05-07T11:53:41;3.93;;;0.80;;
3971;SDS011;2000;47.572;14.202;2023-05-07T11:56:09;1.30;;;1.10;;
3971;SDS011;2000;47.572;14.202;2023-05-07T11:58:37;1.97;;;1.10;;
3971;SDS011;2000;47.572;14.202;2023-05-07T12:01:06;2.53;;;1.53;;
3971;SDS011;2000;47.572;14.202;2023-05-07T12:03:34;1.10;;;0.77;;
3971;SDS011;2000;47.572;14.202;2023-05-07T12:06:01;3.60;;;1.20;;
3971;SDS011;2000;47.572;14.202;2023-05-07T12:08:29;1.93;;;1.33;;
3971;SDS011;2000;47.572;14.202;2023-05-07T12:10:55;2.87;;;1.33;;
3971;SDS011;2000;47.572;14.202;2023-05-07T12:13:23;3.63;;;1.20;;
3971;SDS011;2000;47.572;14.202;2023-05-07T12:15:57;4.00;;;1.17;;
3971;SDS011;2000;47.572;14.202;2023-05-07T12:18:24;11.60;;;1.60;;
3971;SDS011;2000;47.572;14.202;2023-05-07T12:20:51;1.40;;;1.07;;
3971;SDS011;2000;47.572;14.202;2023-05-07T12:23:18;3.80;;;1.10;;
3971;SDS011;2000;47.572;14.202;2023-05-07T12:25:45;7.00;;;1.27;;
3971;SDS011;2000;47.572;14.202;2023-05-07T12:28:15;1.10;;;0.93;;
3971;SDS011;2000;47.572;14.202;2023-05-07T12:30:43;3.70;;;2.20;;
3971;SDS011;2000;47.572;14.202;2023-05-07T12:33:11;2.73;;;0.80;;
3971;SDS011;2000;47.572;14.202;2023-05-07T12:35:41;1.47;;;0.97;;
3971;SDS011;2000;47.572;14.202;2023-05-07T12:38:09;0.80;;;0.80;;
3971;SDS011;2000;47.572;14.202;2023-05-07T12:40:38;1.80;;;0.73;;
3971;SDS011;2000;47.572;14.202;2023-05-07T12:43:42;1.50;;;0.70;;
3971;SDS011;2000;47.572;14.202;2023-05-07T12:46:04;2.43;;;1.00;;
3971;SDS011;2000;47.572;14.202;2023-05-07T12:48:32;1.83;;;0.87;;
3971;SDS011;2000;47.572;14.202;2023-05-07T12:50:59;4.60;;;1.47;;
3971;SDS011;2000;47.572;14.202;2023-05-07T12:53:28;1.70;;;1.43;;
3971;SDS011;2000;47.572;14.202;2023-05-07T12:55:56;2.63;;;0.90;;
3971;SDS011;2000;47.572;14.202;2023-05-07T13:00:54;1.40;;;0.80;;
3971;SDS011;2000;47.572;14.202;2023-05-07T13:03:27;1.27;;;1.17;;
3971;SDS011;2000;47.572;14.202;2023-05-07T13:06:02;2.80;;;1.47;;
3971;SDS011;2000;47.572;14.202;2023-05-07T13:08:31;3.53;;;1.33;;
3971;SDS011;2000;47.572;14.202;2023-05-07T13:11:07;3.20;;;1.10;;
3971;SDS011;2000;47.572;14.202;2023-05-07T13:13:35;1.07;;;1.07;;
3971;SDS011;2000;47.572;14.202;2023-05-07T13:16:03;3.03;;;1.10;;
3971;SDS011;2000;47.572;14.202;2023-05-07T13:18:30;5.40;;;2.10;;
3971;SDS011;2000;47.572;14.202;2023-05-07T13:20:58;6.03;;;0.80;;
3971;SDS011;2000;47.572;14.202;2023-05-07T13:23:25;5.50;;;1.23;;
3971;SDS011;2000;47.572;14.202;2023-05-07T13:25:53;2.10;;;1.43;;
3971;SDS011;2000;47.572;14.202;2023-05-07T13:28:23;2.47;;;1.60;;
3971;SDS011;2000;47.572;14.202;2023-05-07T13:30:52;1.90;;;1.80;;
3971;SDS011;2000;47.572;14.202;2023-05-07T13:33:19;1.70;;;1.40;;
3971;SDS011;2000;47.572;14.202;2023-05-07T13:35:46;2.53;;;2.27;;
3971;SDS011;2000;47.572;14.202;2023-05-07T13:38:13;5.43;;;1.40;;
3971;SDS011;2000;47.572;14.202;2023-05-07T13:40:42;2.20;;;2.00;;
3971;SDS011;2000;47.572;14.202;2023-05-07T13:43:09;2.40;;;2.20;;
3971;SDS011;2000;47.572;14.202;2023-05-07T13:45:37;10.73;;;2.00;;
3971;SDS011;2000;47.572;14.202;2023-05-07T13:48:04;2.10;;;1.50;;
3971;SDS011;2000;47.572;14.202;2023-05-07T13:50:31;2.40;;;1.70;;
3971;SDS011;2000;47.572;14.202;2023-05-07T13:52:58;2.60;;;1.50;;
3971;SDS011;2000;47.572;14.202;2023-05-07T13:55:24;6.03;;;1.90;;
3971;SDS011;2000;47.572;14.202;2023-05-07T13:57:58;2.20;;;2.00;;
3971;SDS011;2000;47.572;14.202;2023-05-07T14:00:26;3.47;;;1.90;;
3971;SDS011;2000;47.572;14.202;2023-05-07T14:02:54;12.87;;;1.87;;
3971;SDS011;2000;47.572;14.202;2023-05-07T14:05:22;1.93;;;1.83;;
3971;SDS011;2000;47.572;14.202;2023-05-07T14:07:50;2.67;;;1.33;;
3971;SDS011;2000;47.572;14.202;2023-05-07T14:10:18;2.93;;;1.63;;
3971;SDS011;2000;47.572;14.202;2023-05-07T14:12:46;2.80;;;1.80;;
3971;SDS011;2000;47.572;14.202;2023-05-07T14:15:13;3.93;;;1.80;;
3971;SDS011;2000;47.572;14.202;2023-05-07T14:17:41;2.50;;;1.40;;
3971;SDS011;2000;47.572;14.202;2023-05-07T14:20:08;3.10;;;1.80;;
3971;SDS011;2000;47.572;14.202;2023-05-07T14:22:37;8.93;;;1.83;;
3971;SDS011;2000;47.572;14.202;2023-05-07T14:25:04;1.70;;;1.60;;
3971;SDS011;2000;47.572;14.202;2023-05-07T14:27:32;2.87;;;1.67;;
3971;SDS011;2000;47.572;14.202;2023-05-07T14:29:59;5.17;;;1.80;;
3971;SDS011;2000;47.572;14.202;2023-05-07T14:32:26;2.40;;;1.90;;
3971;SDS011;2000;47.572;14.202;2023-05-07T14:34:53;2.73;;;1.67;;
3971;SDS011;2000;47.572;14.202;2023-05-07T14:37:20;2.60;;;1.63;;
3971;SDS011;2000;47.572;14.202;2023-05-07T14:39:46;2.00;;;1.50;;
3971;SDS011;2000;47.572;14.202;2023-05-07T14:42:16;2.23;;;1.43;;
3971;SDS011;2000;47.572;14.202;2023-05-07T14:44:43;2.30;;;1.90;;
3971;SDS011;2000;47.572;14.202;2023-05-07T14:47:12;10.80;;;2.17;;
3971;SDS011;2000;47.572;14.202;2023-05-07T14:49:39;2.10;;;1.60;;
3971;SDS011;2000;47.572;14.202;2023-05-07T14:52:07;2.33;;;2.07;;
3971;SDS011;2000;47.572;14.202;2023-05-07T14:54:37;4.03;;;2.30;;
3971;SDS011;2000;47.572;14.202;2023-05-07T14:57:04;2.17;;;1.77;;
3971;SDS011;2000;47.572;14.202;2023-05-07T14:59:32;1.97;;;1.87;;
3971;SDS011;2000;47.572;14.202;2023-05-07T15:01:59;13.40;;;2.60;;
3971;SDS011;2000;47.572;14.202;2023-05-07T15:04:28;4.47;;;2.07;;
3971;SDS011;2000;47.572;14.202;2023-05-07T15:06:55;1.53;;;1.43;;
3971;SDS011;2000;47.572;14.202;2023-05-07T15:09:22;7.80;;;2.50;;
3971;SDS011;2000;47.572;14.202;2023-05-07T15:11:49;4.47;;;1.87;;
3971;SDS011;2000;47.572;14.202;2023-05-07T15:14:16;7.43;;;2.90;;
3971;SDS011;2000;47.572;14.202;2023-05-07T15:16:43;4.17;;;2.20;;
3971;SDS011;2000;47.572;14.202;2023-05-07T15:19:10;7.30;;;2.20;;
3971;SDS011;2000;47.572;14.202;2023-05-07T15:21:36;5.20;;;2.73;;
3971;SDS011;2000;47.572;14.202;2023-05-07T15:24:03;2.17;;;1.97;;
3971;SDS011;2000;47.572;14.202;2023-05-07T15:26:30;3.20;;;2.03;;
3971;SDS011;2000;47.572;14.202;2023-05-07T15:28:57;4.87;;;2.33;;
3971;SDS011;2000;47.572;14.202;2023-05-07T15:31:24;3.03;;;1.90;;